createdAt,value
2023-04-02T00:01:52.295Z,23.98
2023-04-02T00:04:22.537Z,23.98
2023-04-02T00:07:19.162Z,23.98
2023-04-02T00:09:46.395Z,23.97
2023-04-02T00:12:18.269Z,23.97
2023-04-02T00:14:54.402Z,23.97
2023-04-02T00:17:24.576Z,23.97
2023-04-02T00:19:57.384Z,23.98
2023-04-02T00:22:28.781Z,23.96
2023-04-02T00:24:56.507Z,23.95
2023-04-02T00:27:23.707Z,23.93
2023-04-02T00:29:52.648Z,23.94
2023-04-02T00:32:24.589Z,23.92
2023-04-02T00:34:53.358Z,23.93
2023-04-02T00:37:27.987Z,23.92
2023-04-02T00:40:00.798Z,23.92
2023-04-02T00:42:31.144Z,23.92
2023-04-02T00:44:59.080Z,23.92
2023-04-02T00:47:31.872Z,23.91
2023-04-02T00:50:06.097Z,23.90
2023-04-02T00:52:35.375Z,23.91
2023-04-02T00:55:06.577Z,23.89
2023-04-02T00:57:34.457Z,23.90
2023-04-02T01:00:15.848Z,23.91
2023-04-02T01:02:42.940Z,23.91
2023-04-02T01:05:23.247Z,23.90
2023-04-02T01:08:04.104Z,23.91
2023-04-02T01:10:47.429Z,23.89
2023-04-02T01:13:23.898Z,23.88
2023-04-02T01:15:58.756Z,23.90
2023-04-02T01:18:36.822Z,23.88
2023-04-02T01:21:17.875Z,23.89
2023-04-02T01:23:53.833Z,23.89
2023-04-02T01:26:28.943Z,23.90
2023-04-02T01:29:03.059Z,23.89
2023-04-02T01:31:33.268Z,23.85
2023-04-02T01:34:02.391Z,23.86
2023-04-02T01:36:39.153Z,23.86
2023-04-02T01:39:17.789Z,23.84
2023-04-02T01:41:50.695Z,23.84
2023-04-02T01:44:25.031Z,23.84
2023-04-02T01:46:52.768Z,23.86
2023-04-02T01:49:22.146Z,23.86
2023-04-02T01:51:53.119Z,23.83
2023-04-02T01:54:21.914Z,23.82
2023-04-02T01:56:49.709Z,23.91
2023-04-02T01:59:22.175Z,23.96
2023-04-02T02:01:57.349Z,23.96
2023-04-02T02:04:24.677Z,23.97
2023-04-02T02:06:51.837Z,23.98
2023-04-02T02:09:26.151Z,23.96
2023-04-02T02:11:53.176Z,23.96
2023-04-02T02:14:23.254Z,23.96
2023-04-02T02:16:50.690Z,23.97
2023-04-02T02:19:24.705Z,23.97
2023-04-02T02:21:54.189Z,23.96
2023-04-02T02:24:24.203Z,23.96
2023-04-02T02:27:03.772Z,23.95
2023-04-02T02:29:37.130Z,23.95
2023-04-02T02:32:06.842Z,23.96
2023-04-02T02:34:38.826Z,23.94
2023-04-02T02:37:12.305Z,23.93
2023-04-02T02:39:43.181Z,23.92
2023-04-02T02:42:16.158Z,23.94
2023-04-02T02:44:48.254Z,23.93
2023-04-02T02:47:18.650Z,23.94
2023-04-02T02:49:50.032Z,23.95
2023-04-02T02:52:21.478Z,23.93
2023-04-02T02:54:58.258Z,23.93
2023-04-02T02:57:32.249Z,23.92
2023-04-02T03:00:02.330Z,23.92
2023-04-02T03:02:35.352Z,23.92
2023-04-02T03:05:03.097Z,23.92
2023-04-02T03:07:31.773Z,23.92
2023-04-02T03:10:05.670Z,23.91
2023-04-02T03:12:44.097Z,23.91
2023-04-02T03:15:22.914Z,23.91
2023-04-02T03:17:57.529Z,23.90
2023-04-02T03:20:31.687Z,23.90
2023-04-02T03:23:07.290Z,23.89
2023-04-02T03:25:41.012Z,23.89
2023-04-02T03:28:19.697Z,23.90
2023-04-02T03:30:52.988Z,23.89
2023-04-02T03:33:25.500Z,23.87
2023-04-02T03:35:59.951Z,23.87
2023-04-02T03:38:29.684Z,23.88
2023-04-02T03:41:05.154Z,23.87
2023-04-02T03:43:39.701Z,23.87
2023-04-02T03:46:22.144Z,23.85
2023-04-02T03:48:51.829Z,23.88
2023-04-02T03:51:23.589Z,23.84
2023-04-02T03:53:50.930Z,23.83
2023-04-02T03:56:28.510Z,23.83
2023-04-02T03:59:07.953Z,23.84
2023-04-02T04:01:42.466Z,23.84
2023-04-02T04:04:14.969Z,23.84
2023-04-02T04:06:44.902Z,23.82
2023-04-02T04:09:19.718Z,23.83
2023-04-02T04:11:51.720Z,23.83
2023-04-02T04:14:27.548Z,23.83
2023-04-02T04:17:04.419Z,23.84
2023-04-02T04:19:40.431Z,23.83
2023-04-02T04:22:14.435Z,23.82
2023-04-02T04:24:45.867Z,23.83
2023-04-02T04:27:21.512Z,23.82
2023-04-02T04:29:55.680Z,23.81
2023-04-02T04:32:32.495Z,23.82
2023-04-02T04:35:15.911Z,23.83
2023-04-02T04:37:49.693Z,23.81
2023-04-02T04:40:23.808Z,23.81
2023-04-02T04:42:58.242Z,23.81
2023-04-02T04:45:42.625Z,23.81
2023-04-02T04:48:19.125Z,23.81
2023-04-02T04:50:51.779Z,23.82
2023-04-02T04:53:22.217Z,23.81
2023-04-02T04:55:54.164Z,23.79
2023-04-02T04:58:24.324Z,23.80
2023-04-02T05:01:01.862Z,23.80
2023-04-02T05:03:38.021Z,23.78
2023-04-02T05:06:12.641Z,23.78
2023-04-02T05:08:45.428Z,23.78
2023-04-02T05:11:20.107Z,23.78
2023-04-02T05:13:52.548Z,23.78
2023-04-02T05:16:27.222Z,23.80
2023-04-02T05:19:03.827Z,23.82
2023-04-02T05:21:40.652Z,23.75
2023-04-02T05:24:35.641Z,23.79
2023-04-02T05:27:12.277Z,23.79
2023-04-02T05:29:44.387Z,23.82
2023-04-02T05:32:17.589Z,23.87
2023-04-02T05:34:51.710Z,23.93
2023-04-02T05:37:21.459Z,24.00
2023-04-02T05:39:52.358Z,24.03
2023-04-02T05:42:23.596Z,24.09
2023-04-02T05:45:06.974Z,24.14
2023-04-02T05:47:40.868Z,24.20
2023-04-02T05:50:19.084Z,24.28
2023-04-02T05:52:51.794Z,24.32
2023-04-02T05:55:33.057Z,24.42
2023-04-02T05:58:25.575Z,24.48
2023-04-02T06:01:21.080Z,24.51
2023-04-02T06:03:57.475Z,24.55
2023-04-02T06:06:46.355Z,24.59
2023-04-02T06:09:19.838Z,24.64
2023-04-02T06:11:51.461Z,24.68
2023-04-02T06:14:19.382Z,24.70
2023-04-02T06:16:48.082Z,24.72
2023-04-02T06:19:19.066Z,24.75
2023-04-02T06:21:49.939Z,24.78
2023-04-02T06:24:24.416Z,24.83
2023-04-02T06:26:57.725Z,24.82
2023-04-02T06:29:31.607Z,24.84
2023-04-02T06:32:00.795Z,24.84
2023-04-02T06:34:30.776Z,24.86
2023-04-02T06:37:19.618Z,24.87
2023-04-02T06:39:47.558Z,24.89
2023-04-02T06:42:19.413Z,24.89
2023-04-02T06:45:23.142Z,24.90
2023-04-02T06:48:17.261Z,24.90
2023-04-02T06:50:49.366Z,24.91
2023-04-02T06:53:21.530Z,24.94
2023-04-02T06:55:52.688Z,24.92
2023-04-02T06:58:24.133Z,24.93
2023-04-02T07:00:52.435Z,24.93
2023-04-02T07:03:29.979Z,24.94
2023-04-02T07:06:02.765Z,24.95
2023-04-02T07:08:32.117Z,24.97
2023-04-02T07:10:59.078Z,24.97
2023-04-02T07:13:26.469Z,24.99
2023-04-02T07:15:55.075Z,25.00
2023-04-02T07:18:26.529Z,25.00
2023-04-02T07:20:53.870Z,25.02
2023-04-02T07:23:21.239Z,25.02
2023-04-02T07:25:50.333Z,25.03
2023-04-02T07:28:17.416Z,25.02
2023-04-02T07:30:45.463Z,25.02
2023-04-02T07:33:14.057Z,25.04
2023-04-02T07:35:41.260Z,25.04
2023-04-02T07:38:08.321Z,25.03
2023-04-02T07:40:35.715Z,25.03
2023-04-02T07:43:04.076Z,25.03
2023-04-02T07:45:31.492Z,25.04
2023-04-02T07:47:58.746Z,25.05
2023-04-02T07:50:25.650Z,25.05
2023-04-02T07:52:52.450Z,25.05
2023-04-02T07:55:19.265Z,25.04
2023-04-02T07:57:49.444Z,25.05
2023-04-02T08:00:18.669Z,25.08
2023-04-02T08:02:45.873Z,25.10
2023-04-02T08:05:13.266Z,25.11
2023-04-02T08:07:40.365Z,25.12
2023-04-02T08:10:09.162Z,25.17
2023-04-02T08:12:36.532Z,25.19
2023-04-02T08:15:05.767Z,25.20
2023-04-02T08:17:34.016Z,25.21
2023-04-02T08:20:01.999Z,25.23
2023-04-02T08:22:29.411Z,25.24
2023-04-02T08:24:56.725Z,25.26
2023-04-02T08:27:23.649Z,25.27
2023-04-02T08:29:50.950Z,25.28
2023-04-02T08:32:18.225Z,25.29
2023-04-02T08:34:46.582Z,25.28
2023-04-02T08:37:13.782Z,25.30
2023-04-02T08:39:41.346Z,25.32
2023-04-02T08:42:24.001Z,25.31
2023-04-02T08:45:22.967Z,25.29
2023-04-02T08:47:52.073Z,25.30
2023-04-02T08:50:29.264Z,25.31
2023-04-02T08:52:56.991Z,25.36
2023-04-02T08:55:32.935Z,25.42
2023-04-02T08:58:08.631Z,25.43
2023-04-02T09:00:38.192Z,25.45
2023-04-02T09:03:10.927Z,25.42
2023-04-02T09:05:42.291Z,25.46
2023-04-02T09:08:16.435Z,25.48
2023-04-02T09:10:51.618Z,25.48
2023-04-02T09:13:23.877Z,25.39
2023-04-02T09:15:56.573Z,25.49
2023-04-02T09:18:23.535Z,25.48
2023-04-02T09:20:51.766Z,25.53
2023-04-02T09:23:23.064Z,25.54
2023-04-02T09:26:03.546Z,25.53
2023-04-02T09:28:31.385Z,25.56
2023-04-02T09:31:06.982Z,25.55
2023-04-02T09:33:45.272Z,25.57
2023-04-02T09:36:35.971Z,25.56
2023-04-02T09:39:07.185Z,25.54
2023-04-02T09:41:37.096Z,25.55
2023-04-02T09:44:20.239Z,25.56
2023-04-02T09:46:53.059Z,25.56
2023-04-02T09:49:25.207Z,25.57
2023-04-02T09:52:19.819Z,25.56
2023-04-02T09:54:47.748Z,25.55
2023-04-02T09:57:23.712Z,25.55
2023-04-02T10:00:25.353Z,25.56
2023-04-02T10:03:04.791Z,25.54
2023-04-02T10:05:40.678Z,25.54
2023-04-02T10:08:20.056Z,25.54
2023-04-02T10:10:50.561Z,25.55
2023-04-02T10:13:23.015Z,25.55
2023-04-02T10:15:56.273Z,25.53
2023-04-02T10:18:33.462Z,25.53
2023-04-02T10:21:03.494Z,25.50
2023-04-02T10:23:32.296Z,25.49
2023-04-02T10:26:12.150Z,25.48
2023-04-02T10:29:08.056Z,25.49
2023-04-02T10:31:47.713Z,25.47
2023-04-02T10:34:23.529Z,25.48
2023-04-02T10:36:54.726Z,25.44
2023-04-02T10:39:29.647Z,25.43
2023-04-02T10:42:06.527Z,25.42
2023-04-02T10:44:43.499Z,25.41
2023-04-02T10:47:33.987Z,25.40
2023-04-02T10:50:18.533Z,25.36
2023-04-02T10:52:56.457Z,25.34
2023-04-02T10:55:28.998Z,25.34
2023-04-02T10:57:59.706Z,25.32
2023-04-02T11:00:29.175Z,25.31
2023-04-02T11:03:02.338Z,25.31
2023-04-02T11:05:40.313Z,25.29
2023-04-02T11:08:16.984Z,25.28
2023-04-02T11:10:48.789Z,25.27
2023-04-02T11:13:22.923Z,25.25
2023-04-02T11:15:50.734Z,25.24
2023-04-02T11:18:24.695Z,25.25
2023-04-02T11:21:00.532Z,25.25
2023-04-02T11:23:30.624Z,25.24
2023-04-02T11:26:35.271Z,25.20
2023-04-02T11:29:08.164Z,25.15
2023-04-02T11:31:35.195Z,25.14
2023-04-02T11:34:02.025Z,25.12
2023-04-02T11:37:01.715Z,25.12
2023-04-02T11:39:54.028Z,25.09
2023-04-02T11:42:30.419Z,25.07
2023-04-02T11:45:01.616Z,25.07
2023-04-02T11:47:30.433Z,25.07
2023-04-02T11:50:05.952Z,25.07
2023-04-02T11:52:38.017Z,25.07
2023-04-02T11:55:24.178Z,25.07
2023-04-02T11:58:25.396Z,25.05
2023-04-02T12:01:20.960Z,25.05
2023-04-02T12:04:12.132Z,25.04
2023-04-02T12:06:54.958Z,25.01
2023-04-02T12:09:23.803Z,25.00
2023-04-02T12:11:52.732Z,25.00
2023-04-02T12:14:41.563Z,24.99
2023-04-02T12:17:18.443Z,25.01
2023-04-02T12:19:51.121Z,25.01
2023-04-02T12:22:23.797Z,24.98
2023-04-02T12:24:53.636Z,24.99
2023-04-02T12:27:27.622Z,24.97
2023-04-02T12:29:57.229Z,24.98
2023-04-02T12:32:29.561Z,24.99
2023-04-02T12:34:58.145Z,24.96
2023-04-02T12:37:27.024Z,24.97
2023-04-02T12:39:56.496Z,24.98
2023-04-02T12:42:31.758Z,24.97
2023-04-02T12:45:00.675Z,24.96
2023-04-02T12:47:28.478Z,24.93
2023-04-02T12:49:57.489Z,24.95
2023-04-02T12:52:28.792Z,24.95
2023-04-02T12:54:57.372Z,24.95
2023-04-02T12:57:39.577Z,24.91
2023-04-02T13:00:31.748Z,24.90
2023-04-02T13:03:17.006Z,24.90
2023-04-02T13:05:47.164Z,24.89
2023-04-02T13:08:20.350Z,24.89
2023-04-02T13:10:53.640Z,24.89
2023-04-02T13:13:24.958Z,24.88
2023-04-02T13:16:02.614Z,24.91
2023-04-02T13:18:31.928Z,24.88
2023-04-02T13:20:59.833Z,24.87
2023-04-02T13:23:37.494Z,24.89
2023-04-02T13:26:17.478Z,24.87
2023-04-02T13:28:56.335Z,24.88
2023-04-02T13:31:24.916Z,24.86
2023-04-02T13:33:51.792Z,24.87
2023-04-02T13:36:18.634Z,24.88
2023-04-02T13:38:45.482Z,24.88
2023-04-02T13:41:20.902Z,24.88
2023-04-02T13:43:47.901Z,24.89
2023-04-02T13:46:21.247Z,24.89
2023-04-02T13:48:50.377Z,24.89
2023-04-02T13:51:19.024Z,24.90
2023-04-02T13:53:47.589Z,24.89
2023-04-02T13:56:14.480Z,24.90
2023-04-02T13:58:41.354Z,24.89
2023-04-02T14:01:09.377Z,24.88
2023-04-02T14:03:36.659Z,24.89
2023-04-02T14:06:15.283Z,24.86
2023-04-02T14:08:57.222Z,24.86
2023-04-02T14:11:35.974Z,24.85
2023-04-02T14:14:20.541Z,24.86
2023-04-02T14:17:01.009Z,24.88
2023-04-02T14:19:43.644Z,24.86
2023-04-02T14:22:21.244Z,24.85
2023-04-02T14:24:55.962Z,24.86
2023-04-02T14:27:33.422Z,24.87
2023-04-02T14:30:08.275Z,24.86
2023-04-02T14:32:44.634Z,24.86
2023-04-02T14:35:21.092Z,24.86
2023-04-02T14:37:56.489Z,24.85
2023-04-02T14:40:29.581Z,24.86
2023-04-02T14:43:00.686Z,24.84
2023-04-02T14:45:42.250Z,24.86
2023-04-02T14:48:15.341Z,24.88
2023-04-02T14:50:42.806Z,24.85
2023-04-02T14:53:17.571Z,24.85
2023-04-02T14:55:47.286Z,24.85
2023-04-02T14:58:19.752Z,24.85
2023-04-02T15:00:56.193Z,24.84
2023-04-02T15:03:25.928Z,24.84
2023-04-02T15:05:56.751Z,24.85
2023-04-02T15:08:28.942Z,24.85
2023-04-02T15:11:04.993Z,24.85
2023-04-02T15:13:38.231Z,24.85
2023-04-02T15:16:11.477Z,24.87
2023-04-02T15:18:38.581Z,24.84
2023-04-02T15:21:29.401Z,24.84
2023-04-02T15:24:04.187Z,24.86
2023-04-02T15:26:39.812Z,24.88
2023-04-02T15:29:28.381Z,24.88
2023-04-02T15:32:07.512Z,24.87
2023-04-02T15:34:40.070Z,24.88
2023-04-02T15:37:17.477Z,24.88
2023-04-02T15:40:07.965Z,24.87
2023-04-02T15:42:39.280Z,24.87
2023-04-02T15:45:22.799Z,24.89
2023-04-02T15:48:11.015Z,24.84
2023-04-02T15:50:51.487Z,24.83
2023-04-02T15:53:30.722Z,24.87
2023-04-02T15:56:09.373Z,24.88
2023-04-02T15:58:50.790Z,24.89
2023-04-02T16:01:22.025Z,24.93
2023-04-02T16:04:21.837Z,24.91
2023-04-02T16:07:12.415Z,24.91
2023-04-02T16:09:49.539Z,24.91
2023-04-02T16:12:19.910Z,24.91
2023-04-02T16:14:48.458Z,24.92
2023-04-02T16:17:24.953Z,24.93
2023-04-02T16:19:56.927Z,24.95
2023-04-02T16:22:28.357Z,24.95
2023-04-02T16:24:58.049Z,24.96
2023-04-02T16:27:31.751Z,24.94
2023-04-02T16:30:09.332Z,24.95
2023-04-02T16:32:56.678Z,24.95
2023-04-02T16:35:42.771Z,24.95
2023-04-02T16:38:21.378Z,24.95
2023-04-02T16:41:07.498Z,24.94
2023-04-02T16:43:49.562Z,24.93
2023-04-02T16:46:38.050Z,24.92
2023-04-02T16:49:17.369Z,24.92
2023-04-02T16:51:52.596Z,24.89
2023-04-02T16:54:26.192Z,24.89
2023-04-02T16:57:07.825Z,24.94
2023-04-02T16:59:43.549Z,24.96
2023-04-02T17:02:24.325Z,24.97
2023-04-02T17:05:04.938Z,24.97
2023-04-02T17:07:35.721Z,24.96
2023-04-02T17:10:30.158Z,24.96
2023-04-02T17:13:03.229Z,24.94
2023-04-02T17:15:36.965Z,24.93
2023-04-02T17:18:11.022Z,24.93
2023-04-02T17:20:38.278Z,24.92
2023-04-02T17:23:05.879Z,24.93
2023-04-02T17:25:37.838Z,24.92
2023-04-02T17:28:12.598Z,24.93
2023-04-02T17:30:44.795Z,24.93
2023-04-02T17:33:12.523Z,24.94
2023-04-02T17:35:53.260Z,24.95
2023-04-02T17:38:28.484Z,24.95
2023-04-02T17:41:08.051Z,24.94
2023-04-02T17:43:46.115Z,24.94
2023-04-02T17:46:24.423Z,24.94
2023-04-02T17:49:00.774Z,24.94
2023-04-02T17:51:35.668Z,24.95
2023-04-02T17:54:17.855Z,24.93
2023-04-02T17:57:00.380Z,24.92
2023-04-02T17:59:44.078Z,24.95
2023-04-02T18:02:35.493Z,24.97
2023-04-02T18:05:14.543Z,24.98
2023-04-02T18:07:50.022Z,25.00
2023-04-02T18:10:23.523Z,24.99
2023-04-02T18:13:06.250Z,25.01
2023-04-02T18:15:46.173Z,24.99
2023-04-02T18:18:30.759Z,24.99
2023-04-02T18:21:08.068Z,24.97
2023-04-02T18:23:48.160Z,24.98
2023-04-02T18:26:22.454Z,24.98
2023-04-02T18:29:01.507Z,24.99
2023-04-02T18:31:38.026Z,24.99
2023-04-02T18:34:23.446Z,24.98
2023-04-02T18:37:05.001Z,24.97
2023-04-02T18:39:45.716Z,24.97
2023-04-02T18:42:36.123Z,24.96
2023-04-02T18:45:11.892Z,24.96
2023-04-02T18:47:47.020Z,24.96
2023-04-02T18:50:18.584Z,24.96
2023-04-02T18:52:45.944Z,24.96
2023-04-02T18:55:19.998Z,24.91
2023-04-02T18:57:51.469Z,24.95
2023-04-02T19:00:29.058Z,24.94
2023-04-02T19:03:01.816Z,24.93
2023-04-02T19:05:40.537Z,24.92
2023-04-02T19:08:16.504Z,24.92
2023-04-02T19:10:45.059Z,24.90
2023-04-02T19:13:16.311Z,24.91
2023-04-02T19:16:03.765Z,24.92
2023-04-02T19:18:39.462Z,24.88
2023-04-02T19:21:21.499Z,24.86
2023-04-02T19:24:02.977Z,24.88
2023-04-02T19:26:35.018Z,24.88
2023-04-02T19:29:16.630Z,24.85
2023-04-02T19:31:53.629Z,24.84
2023-04-02T19:34:27.691Z,24.80
2023-04-02T19:37:02.075Z,24.77
2023-04-02T19:39:58.884Z,24.67
2023-04-02T19:42:43.595Z,24.62
2023-04-02T19:45:27.279Z,24.59
2023-04-02T19:47:55.324Z,24.68
2023-04-02T19:50:22.573Z,24.72
2023-04-02T19:52:51.284Z,24.71
2023-04-02T19:55:18.138Z,24.72
2023-04-02T19:57:45.195Z,24.72
2023-04-02T20:00:14.283Z,24.69
2023-04-02T20:02:41.402Z,24.67
2023-04-02T20:05:08.917Z,24.68
2023-04-02T20:07:36.097Z,24.66
2023-04-02T20:10:04.868Z,24.65
2023-04-02T20:12:31.746Z,24.65
2023-04-02T20:14:58.617Z,24.62
2023-04-02T20:17:25.560Z,24.60
2023-04-02T20:19:52.431Z,24.57
2023-04-02T20:22:19.409Z,24.51
2023-04-02T20:24:46.219Z,24.51
2023-04-02T20:27:14.435Z,24.46
2023-04-02T20:29:42.468Z,24.38
2023-04-02T20:32:09.844Z,24.35
2023-04-02T20:34:36.815Z,24.31
2023-04-02T20:37:03.744Z,24.27
2023-04-02T20:39:30.593Z,24.24
2023-04-02T20:42:01.228Z,24.25
2023-04-02T20:44:29.553Z,24.27
2023-04-02T20:46:56.453Z,24.27
2023-04-02T20:49:23.370Z,24.28
2023-04-02T20:51:50.167Z,24.28
2023-04-02T20:54:16.978Z,24.24
2023-04-02T20:56:44.682Z,24.26
2023-04-02T20:59:11.720Z,24.26
2023-04-02T21:01:39.931Z,24.26
2023-04-02T21:04:06.905Z,24.29
2023-04-02T21:06:35.324Z,24.28
2023-04-02T21:09:04.431Z,24.26
2023-04-02T21:11:32.608Z,24.25
2023-04-02T21:13:59.451Z,24.26
2023-04-02T21:16:28.864Z,24.24
2023-04-02T21:18:59.652Z,24.22
2023-04-02T21:21:26.975Z,24.21
2023-04-02T21:23:54.823Z,24.21
2023-04-02T21:26:21.805Z,24.20
2023-04-02T21:28:48.680Z,24.22
2023-04-02T21:31:17.701Z,24.19
2023-04-02T21:33:47.046Z,24.19
2023-04-02T21:36:17.177Z,24.19
2023-04-02T21:38:44.922Z,24.17
2023-04-02T21:41:13.631Z,24.16
2023-04-02T21:43:40.520Z,24.15
2023-04-02T21:46:07.384Z,24.14
2023-04-02T21:48:34.241Z,24.12
2023-04-02T21:51:08.895Z,24.14
2023-04-02T21:53:38.249Z,24.15
2023-04-02T21:56:07.238Z,24.10
2023-04-02T21:58:34.810Z,24.09
2023-04-02T22:01:02.775Z,24.08
2023-04-02T22:03:32.092Z,24.08
2023-04-02T22:06:06.675Z,24.07
2023-04-02T22:08:33.971Z,24.08
2023-04-02T22:11:10.845Z,24.08
2023-04-02T22:13:38.981Z,24.05
2023-04-02T22:16:10.421Z,24.10
2023-04-02T22:18:37.993Z,24.14
2023-04-02T22:21:05.762Z,24.14
2023-04-02T22:23:32.932Z,24.16
2023-04-02T22:26:00.866Z,24.21
2023-04-02T22:28:29.533Z,24.26
2023-04-02T22:31:03.168Z,24.30
2023-04-02T22:33:32.357Z,24.35
2023-04-02T22:35:59.774Z,24.38
2023-04-02T22:38:26.968Z,24.39
2023-04-02T22:41:03.327Z,24.44
2023-04-02T22:43:31.800Z,24.37
2023-04-02T22:45:58.728Z,24.31
2023-04-02T22:48:25.600Z,24.29
2023-04-02T22:50:52.498Z,24.30
2023-04-02T22:53:19.820Z,24.30
2023-04-02T22:55:46.779Z,24.30
2023-04-02T22:58:13.593Z,24.29
2023-04-02T23:00:42.054Z,24.28
2023-04-02T23:03:09.068Z,24.27
2023-04-02T23:05:35.942Z,24.24
2023-04-02T23:08:03.101Z,24.23
2023-04-02T23:10:33.987Z,24.19
2023-04-02T23:13:01.058Z,24.18
2023-04-02T23:15:27.837Z,24.16
2023-04-02T23:17:56.072Z,24.17
2023-04-02T23:20:22.956Z,24.26
2023-04-02T23:22:49.815Z,24.28
2023-04-02T23:25:17.017Z,24.31
2023-04-02T23:27:43.838Z,24.33
2023-04-02T23:30:11.042Z,24.28
2023-04-02T23:32:37.924Z,24.18
2023-04-02T23:35:06.649Z,24.13
2023-04-02T23:37:33.427Z,24.12
2023-04-02T23:40:00.380Z,24.10
2023-04-02T23:42:28.025Z,24.06
2023-04-02T23:44:55.504Z,24.13
2023-04-02T23:47:22.300Z,24.13
2023-04-02T23:49:49.141Z,24.14
2023-04-02T23:52:17.326Z,24.01
2023-04-02T23:54:44.181Z,23.96
2023-04-02T23:57:11.371Z,23.93
2023-04-02T23:59:38.201Z,23.91
